Nearby METAR Reports

 

EGNX - East Midlands, United Kingdom
Distance from station: SW 12mi, 19km
Updated: 22/02/2024 03:20
Mostly cloudy
Mostly cloudy
 Wind from S
Wind: S 19 km/h
Temperature: 8°C
Wind Chill: 4°C
Dew Point: 6°C
Humidity: 87%
Barometer: 989 hPa
Clouds: Mostly cloudy
Visibility: 10 km
Cloud details: Mostly cloudy 579 m
2024/02/22 03:20 EGNX 220320Z 18010KT 9999 BKN019 08/06 Q0989
EGYE - Barkston Heath R, United Kingdom
Distance from station: E 24mi, 39km
Updated: 22/02/2024 02:50
Partly cloudy
Partly cloudy
 Wind from SSW
Wind: SSW 26 km/h
Temperature: 7°C
Wind Chill: 3°C
Dew Point: 5°C
Humidity: 87%
Barometer: 991 hPa
Clouds: Partly cloudy
Cloud details: Partly cloudy 1067 m
2024/02/22 02:50 EGYE 220250Z AUTO 20014KT //// SCT035/// 07/05 Q0991
 
EGYD - Cranwell Raf, United Kingdom
Distance from station: ENE 28mi, 44km
Updated: 22/02/2024 02:50
Mostly cloudy
Mostly cloudy
 Wind from S
Wind: S 22 km/h
Temperature: 8°C
Wind Chill: 4°C
Dew Point: 6°C
Humidity: 87%
Barometer: 990 hPa
Clouds: Mostly cloudy
Visibility: 10 km
Cloud details: Mostly cloudy 1097 m
2024/02/22 02:50 EGYD 220250Z AUTO 19012KT 9999 BKN036/// 08/06 Q0990
EGXW - Waddington Raf, United Kingdom
Distance from station: ENE 31mi, 50km
Updated: 22/02/2024 02:50
Mostly cloudy
Mostly cloudy
 Wind from SSW
Wind: SSW 26 km/h
Temperature: 8°C
Wind Chill: 4°C
Dew Point: 5°C
Humidity: 82%
Barometer: 990 hPa
Clouds: Mostly cloudy
Visibility: 10 km
Cloud details: Mostly cloudy 1067 m
2024/02/22 02:50 EGXW 220250Z AUTO 20014KT 9999 BKN035/// 08/05 Q0990
 
EGSY - Yorkshire/Humber, United Kingdom
Distance from station: NNW 33mi, 52km
Updated: 22/02/2024 03:20
Overcast
Overcast
 Wind from SSW
Wind: SSW 15 km/h
Temperature: 10°C
Wind Chill: 8°C
Dew Point: 8°C
Humidity: 88%
Barometer: 990 hPa
Clouds: Overcast
Visibility: 10 km
Cloud details: Overcast 610 m
2024/02/22 03:20 EGSY 220320Z AUTO 20008KT 160V220 9999 OVC020/// 10/08 Q0990 REDZ
EGXP - Scampton Raf, United Kingdom
Distance from station: NE 35mi, 56km
Updated: 01/11/2022 10:50
NOT Current

 Wind from SW
Wind: SW 35 km/h
Temperature: 14°C
Dew Point: 10°C
Humidity: 77%
Barometer: 1001 hPa
2022/11/01 10:50 EGXP 011050Z AUTO 22019KT //// // ///////// 14/10 Q1001
 
EGXT - Wittering Raf, United Kingdom
Distance from station: SE 37mi, 59km
Updated: 22/02/2024 02:50
Partly cloudy
Partly cloudy
 Wind from S
Wind: S 26 km/h
Temperature: 8°C
Wind Chill: 4°C
Dew Point: 6°C
Humidity: 87%
Barometer: 991 hPa
Clouds: Partly cloudy
Visibility: 10 km
Cloud details: Partly cloudy 1036 m
2024/02/22 02:50 EGXT 220250Z AUTO 19014KT 9999 SCT034/// 08/06 Q0991
EGCN - Doncaster Sheffi, United Kingdom
Distance from station: N 37mi, 60km
Updated: 30/11/2022 17:50
NOT Current
Haze, Overcast
Haze, Overcast
 Wind from ESE
Wind: ESE 6 km/h
Temperature: 6°C
Dew Point: 5°C
Humidity: 93%
Barometer: 1028 hPa
Summary: Haze
Clouds: Overcast
Visibility: 5 km
Cloud details: Few Clouds 183 m
Overcast 610 m
2022/11/30 17:50 EGCN 301750Z 12003KT 5000 HZ FEW006 OVC020 06/05 Q1028
 
EGBB - Birmingham Airpo, United Kingdom
Distance from station: SW 42mi, 67km
Updated: 22/02/2024 03:20
Overcast
Overcast
 Wind from SSE
Wind: SSE 19 km/h
Temperature: 9°C
Wind Chill: 6°C
Dew Point: 7°C
Humidity: 87%
Barometer: 990 hPa
Clouds: Overcast
Visibility: 10 km
Cloud details: Overcast 366 m
2024/02/22 03:20 EGBB 220320Z 15010KT 9999 OVC012 09/07 Q0990
EGXC - Coningsby Raf, United Kingdom
Distance from station: ENE 42mi, 68km
Updated: 22/02/2024 02:50
Mostly cloudy
Mostly cloudy
 Wind from S
Wind: S 19 km/h
Temperature: 7°C
Wind Chill: 4°C
Dew Point: 7°C
Humidity: 100%
Barometer: 991 hPa
Clouds: Mostly cloudy
Visibility: 10 km
Cloud details: Mostly cloudy 1219 m
2024/02/22 02:50 EGXC 220250Z 19010KT 9999 BKN040 07/07 Q0991 RMK BLU